sensor_id;sensor_type;location;lat;lon;timestamp;P1;durP1;ratioP1;P2;durP2;ratioP2
14235;SDS011;7202;50.718;7.072;2023-05-07T00:02:18;3.40;;;3.10;;
14235;SDS011;7202;50.718;7.072;2023-05-07T00:04:46;4.35;;;3.13;;
14235;SDS011;7202;50.718;7.072;2023-05-07T00:07:17;3.00;;;2.70;;
14235;SDS011;7202;50.718;7.072;2023-05-07T00:09:45;5.32;;;2.95;;
14235;SDS011;7202;50.718;7.072;2023-05-07T00:12:14;3.22;;;2.80;;
14235;SDS011;7202;50.718;7.072;2023-05-07T00:14:42;3.78;;;3.35;;
14235;SDS011;7202;50.718;7.072;2023-05-07T00:17:11;3.58;;;3.05;;
14235;SDS011;7202;50.718;7.072;2023-05-07T00:19:39;3.45;;;3.13;;
14235;SDS011;7202;50.718;7.072;2023-05-07T00:22:08;3.97;;;3.30;;
14235;SDS011;7202;50.718;7.072;2023-05-07T00:24:38;3.85;;;2.90;;
14235;SDS011;7202;50.718;7.072;2023-05-07T00:27:07;4.97;;;3.13;;
14235;SDS011;7202;50.718;7.072;2023-05-07T00:29:36;4.05;;;3.42;;
14235;SDS011;7202;50.718;7.072;2023-05-07T00:32:05;6.05;;;3.65;;
14235;SDS011;7202;50.718;7.072;2023-05-07T00:34:33;4.07;;;3.35;;
14235;SDS011;7202;50.718;7.072;2023-05-07T00:37:02;3.95;;;3.55;;
14235;SDS011;7202;50.718;7.072;2023-05-07T00:39:32;7.75;;;3.70;;
14235;SDS011;7202;50.718;7.072;2023-05-07T00:42:02;4.28;;;3.45;;
14235;SDS011;7202;50.718;7.072;2023-05-07T00:44:31;4.35;;;3.22;;
14235;SDS011;7202;50.718;7.072;2023-05-07T00:47:00;6.57;;;3.72;;
14235;SDS011;7202;50.718;7.072;2023-05-07T00:49:34;4.38;;;3.13;;
14235;SDS011;7202;50.718;7.072;2023-05-07T00:52:06;5.13;;;3.28;;
14235;SDS011;7202;50.718;7.072;2023-05-07T00:54:37;4.28;;;3.40;;
14235;SDS011;7202;50.718;7.072;2023-05-07T00:57:07;4.32;;;3.30;;
14235;SDS011;7202;50.718;7.072;2023-05-07T00:59:37;5.88;;;3.60;;
14235;SDS011;7202;50.718;7.072;2023-05-07T01:02:07;6.45;;;3.10;;
14235;SDS011;7202;50.718;7.072;2023-05-07T01:04:36;4.05;;;3.65;;
14235;SDS011;7202;50.718;7.072;2023-05-07T01:07:05;4.72;;;4.00;;
14235;SDS011;7202;50.718;7.072;2023-05-07T01:09:33;5.03;;;3.83;;
14235;SDS011;7202;50.718;7.072;2023-05-07T01:12:04;3.90;;;3.50;;
14235;SDS011;7202;50.718;7.072;2023-05-07T01:14:35;5.50;;;3.67;;
14235;SDS011;7202;50.718;7.072;2023-05-07T01:17:04;3.85;;;3.47;;
14235;SDS011;7202;50.718;7.072;2023-05-07T01:19:33;5.82;;;3.35;;
14235;SDS011;7202;50.718;7.072;2023-05-07T01:22:04;3.60;;;3.22;;
14235;SDS011;7202;50.718;7.072;2023-05-07T01:24:50;4.18;;;3.70;;
14235;SDS011;7202;50.718;7.072;2023-05-07T01:27:19;4.07;;;3.50;;
14235;SDS011;7202;50.718;7.072;2023-05-07T01:29:50;4.00;;;3.60;;
14235;SDS011;7202;50.718;7.072;2023-05-07T01:32:18;4.90;;;3.60;;
14235;SDS011;7202;50.718;7.072;2023-05-07T01:34:53;8.30;;;3.83;;
14235;SDS011;7202;50.718;7.072;2023-05-07T01:37:24;3.85;;;3.55;;
14235;SDS011;7202;50.718;7.072;2023-05-07T01:39:54;4.20;;;3.80;;
14235;SDS011;7202;50.718;7.072;2023-05-07T01:42:24;3.95;;;3.55;;
14235;SDS011;7202;50.718;7.072;2023-05-07T01:44:53;4.45;;;3.70;;
14235;SDS011;7202;50.718;7.072;2023-05-07T01:47:21;3.92;;;3.63;;
14235;SDS011;7202;50.718;7.072;2023-05-07T01:49:52;4.25;;;3.85;;
14235;SDS011;7202;50.718;7.072;2023-05-07T01:52:24;4.97;;;4.10;;
14235;SDS011;7202;50.718;7.072;2023-05-07T01:54:53;3.85;;;3.50;;
14235;SDS011;7202;50.718;7.072;2023-05-07T01:57:23;4.38;;;3.70;;
14235;SDS011;7202;50.718;7.072;2023-05-07T01:59:51;4.13;;;3.60;;
14235;SDS011;7202;50.718;7.072;2023-05-07T02:02:20;5.47;;;4.15;;
14235;SDS011;7202;50.718;7.072;2023-05-07T02:04:49;4.60;;;3.63;;
14235;SDS011;7202;50.718;7.072;2023-05-07T02:07:18;3.72;;;3.22;;
14235;SDS011;7202;50.718;7.072;2023-05-07T02:09:47;5.80;;;4.63;;
14235;SDS011;7202;50.718;7.072;2023-05-07T02:12:17;4.10;;;3.75;;
14235;SDS011;7202;50.718;7.072;2023-05-07T02:14:46;5.63;;;4.00;;
14235;SDS011;7202;50.718;7.072;2023-05-07T02:17:15;4.57;;;3.63;;
14235;SDS011;7202;50.718;7.072;2023-05-07T02:19:43;4.70;;;4.03;;
14235;SDS011;7202;50.718;7.072;2023-05-07T02:22:12;4.70;;;4.28;;
14235;SDS011;7202;50.718;7.072;2023-05-07T02:24:40;3.92;;;3.58;;
14235;SDS011;7202;50.718;7.072;2023-05-07T02:27:09;3.75;;;3.45;;
14235;SDS011;7202;50.718;7.072;2023-05-07T02:29:39;4.97;;;4.47;;
14235;SDS011;7202;50.718;7.072;2023-05-07T02:32:08;5.10;;;4.47;;
14235;SDS011;7202;50.718;7.072;2023-05-07T02:34:37;4.93;;;3.85;;
14235;SDS011;7202;50.718;7.072;2023-05-07T02:37:05;4.88;;;4.28;;
14235;SDS011;7202;50.718;7.072;2023-05-07T02:39:34;5.07;;;3.65;;
14235;SDS011;7202;50.718;7.072;2023-05-07T02:42:03;5.35;;;4.20;;
14235;SDS011;7202;50.718;7.072;2023-05-07T02:44:32;5.05;;;4.30;;
14235;SDS011;7202;50.718;7.072;2023-05-07T02:47:03;5.38;;;3.97;;
14235;SDS011;7202;50.718;7.072;2023-05-07T02:49:35;4.70;;;4.15;;
14235;SDS011;7202;50.718;7.072;2023-05-07T02:52:05;4.10;;;3.70;;
14235;SDS011;7202;50.718;7.072;2023-05-07T02:54:34;3.72;;;3.42;;
14235;SDS011;7202;50.718;7.072;2023-05-07T02:57:03;4.18;;;3.60;;
14235;SDS011;7202;50.718;7.072;2023-05-07T02:59:31;4.30;;;3.47;;
14235;SDS011;7202;50.718;7.072;2023-05-07T03:02:00;5.97;;;3.60;;
14235;SDS011;7202;50.718;7.072;2023-05-07T03:04:30;4.10;;;3.38;;
14235;SDS011;7202;50.718;7.072;2023-05-07T03:06:59;4.75;;;3.70;;
14235;SDS011;7202;50.718;7.072;2023-05-07T03:09:27;3.78;;;3.47;;
14235;SDS011;7202;50.718;7.072;2023-05-07T03:11:56;4.28;;;3.30;;
14235;SDS011;7202;50.718;7.072;2023-05-07T03:14:25;4.18;;;3.28;;
14235;SDS011;7202;50.718;7.072;2023-05-07T03:16:53;4.32;;;3.90;;
14235;SDS011;7202;50.718;7.072;2023-05-07T03:19:22;4.18;;;3.78;;
14235;SDS011;7202;50.718;7.072;2023-05-07T03:21:52;4.70;;;4.07;;
14235;SDS011;7202;50.718;7.072;2023-05-07T03:24:21;5.53;;;4.10;;
14235;SDS011;7202;50.718;7.072;2023-05-07T03:26:49;4.80;;;4.30;;
14235;SDS011;7202;50.718;7.072;2023-05-07T03:29:18;4.95;;;4.10;;
14235;SDS011;7202;50.718;7.072;2023-05-07T03:31:46;4.47;;;4.07;;
14235;SDS011;7202;50.718;7.072;2023-05-07T03:34:15;6.80;;;4.90;;
14235;SDS011;7202;50.718;7.072;2023-05-07T03:36:49;7.07;;;4.95;;
14235;SDS011;7202;50.718;7.072;2023-05-07T03:39:20;5.18;;;4.63;;
14235;SDS011;7202;50.718;7.072;2023-05-07T03:41:48;6.05;;;5.40;;
14235;SDS011;7202;50.718;7.072;2023-05-07T03:44:17;8.05;;;5.82;;
14235;SDS011;7202;50.718;7.072;2023-05-07T03:46:47;6.72;;;5.35;;
14235;SDS011;7202;50.718;7.072;2023-05-07T03:49:16;5.38;;;4.88;;
14235;SDS011;7202;50.718;7.072;2023-05-07T03:51:45;6.38;;;5.25;;
14235;SDS011;7202;50.718;7.072;2023-05-07T03:54:13;6.82;;;5.80;;
14235;SDS011;7202;50.718;7.072;2023-05-07T03:56:46;6.03;;;5.15;;
14235;SDS011;7202;50.718;7.072;2023-05-07T03:59:14;6.20;;;5.50;;
14235;SDS011;7202;50.718;7.072;2023-05-07T04:01:45;11.15;;;5.88;;
14235;SDS011;7202;50.718;7.072;2023-05-07T04:04:17;6.32;;;5.35;;
14235;SDS011;7202;50.718;7.072;2023-05-07T04:06:47;6.30;;;5.68;;
14235;SDS011;7202;50.718;7.072;2023-05-07T04:09:16;7.18;;;4.93;;
14235;SDS011;7202;50.718;7.072;2023-05-07T04:11:48;5.70;;;5.13;;
14235;SDS011;7202;50.718;7.072;2023-05-07T04:14:16;6.95;;;5.13;;
14235;SDS011;7202;50.718;7.072;2023-05-07T04:16:45;8.50;;;5.88;;
14235;SDS011;7202;50.718;7.072;2023-05-07T04:19:14;5.88;;;5.28;;
14235;SDS011;7202;50.718;7.072;2023-05-07T04:21:44;11.35;;;6.65;;
14235;SDS011;7202;50.718;7.072;2023-05-07T04:24:13;7.72;;;6.35;;
14235;SDS011;7202;50.718;7.072;2023-05-07T04:26:43;7.63;;;6.20;;
14235;SDS011;7202;50.718;7.072;2023-05-07T04:29:13;8.05;;;6.18;;
14235;SDS011;7202;50.718;7.072;2023-05-07T04:31:42;6.80;;;5.90;;
14235;SDS011;7202;50.718;7.072;2023-05-07T04:34:12;7.68;;;5.85;;
14235;SDS011;7202;50.718;7.072;2023-05-07T04:36:41;6.47;;;5.82;;
14235;SDS011;7202;50.718;7.072;2023-05-07T04:39:12;7.10;;;6.18;;
14235;SDS011;7202;50.718;7.072;2023-05-07T04:41:45;6.25;;;5.65;;
14235;SDS011;7202;50.718;7.072;2023-05-07T04:44:15;7.47;;;6.68;;
14235;SDS011;7202;50.718;7.072;2023-05-07T04:46:44;11.88;;;7.35;;
14235;SDS011;7202;50.718;7.072;2023-05-07T04:49:13;7.70;;;6.32;;
14235;SDS011;7202;50.718;7.072;2023-05-07T04:51:42;7.10;;;6.40;;
14235;SDS011;7202;50.718;7.072;2023-05-07T04:54:13;7.05;;;6.30;;
14235;SDS011;7202;50.718;7.072;2023-05-07T04:56:41;7.68;;;6.47;;
14235;SDS011;7202;50.718;7.072;2023-05-07T04:59:10;8.98;;;6.57;;
14235;SDS011;7202;50.718;7.072;2023-05-07T05:01:40;8.68;;;7.10;;
14235;SDS011;7202;50.718;7.072;2023-05-07T05:04:09;8.32;;;7.07;;
14235;SDS011;7202;50.718;7.072;2023-05-07T05:06:39;9.20;;;7.25;;
14235;SDS011;7202;50.718;7.072;2023-05-07T05:09:10;10.15;;;8.30;;
14235;SDS011;7202;50.718;7.072;2023-05-07T05:11:40;12.88;;;8.02;;
14235;SDS011;7202;50.718;7.072;2023-05-07T05:14:09;9.27;;;8.27;;
14235;SDS011;7202;50.718;7.072;2023-05-07T05:16:39;10.02;;;8.38;;
14235;SDS011;7202;50.718;7.072;2023-05-07T05:19:08;9.15;;;8.15;;
14235;SDS011;7202;50.718;7.072;2023-05-07T05:21:39;9.95;;;7.82;;
14235;SDS011;7202;50.718;7.072;2023-05-07T05:24:09;8.48;;;7.55;;
14235;SDS011;7202;50.718;7.072;2023-05-07T05:26:38;9.95;;;8.05;;
14235;SDS011;7202;50.718;7.072;2023-05-07T05:29:07;9.43;;;8.13;;
14235;SDS011;7202;50.718;7.072;2023-05-07T05:31:40;13.45;;;8.85;;
14235;SDS011;7202;50.718;7.072;2023-05-07T05:34:10;11.25;;;8.73;;
14235;SDS011;7202;50.718;7.072;2023-05-07T05:36:38;11.60;;;9.45;;
14235;SDS011;7202;50.718;7.072;2023-05-07T05:39:07;9.65;;;8.38;;
14235;SDS011;7202;50.718;7.072;2023-05-07T05:41:36;9.05;;;8.02;;
14235;SDS011;7202;50.718;7.072;2023-05-07T05:44:04;9.48;;;8.05;;
14235;SDS011;7202;50.718;7.072;2023-05-07T05:46:33;10.63;;;8.48;;
14235;SDS011;7202;50.718;7.072;2023-05-07T05:49:04;9.52;;;8.00;;
14235;SDS011;7202;50.718;7.072;2023-05-07T05:51:34;11.48;;;8.55;;
14235;SDS011;7202;50.718;7.072;2023-05-07T05:54:02;10.02;;;8.48;;
14235;SDS011;7202;50.718;7.072;2023-05-07T05:56:32;10.73;;;7.88;;
14235;SDS011;7202;50.718;7.072;2023-05-07T05:59:01;8.57;;;7.65;;
14235;SDS011;7202;50.718;7.072;2023-05-07T06:01:30;10.98;;;7.22;;
14235;SDS011;7202;50.718;7.072;2023-05-07T06:04:02;7.50;;;6.78;;
14235;SDS011;7202;50.718;7.072;2023-05-07T06:06:32;7.95;;;7.15;;
14235;SDS011;7202;50.718;7.072;2023-05-07T06:09:02;9.55;;;7.80;;
14235;SDS011;7202;50.718;7.072;2023-05-07T06:11:37;10.13;;;7.15;;
14235;SDS011;7202;50.718;7.072;2023-05-07T06:14:06;7.88;;;6.63;;
14235;SDS011;7202;50.718;7.072;2023-05-07T06:16:35;7.70;;;6.55;;
14235;SDS011;7202;50.718;7.072;2023-05-07T06:19:06;7.78;;;6.25;;
14235;SDS011;7202;50.718;7.072;2023-05-07T06:21:36;8.05;;;6.68;;
14235;SDS011;7202;50.718;7.072;2023-05-07T06:24:05;6.47;;;5.45;;
14235;SDS011;7202;50.718;7.072;2023-05-07T06:26:35;6.03;;;5.43;;
14235;SDS011;7202;50.718;7.072;2023-05-07T06:29:04;6.07;;;5.47;;
14235;SDS011;7202;50.718;7.072;2023-05-07T06:31:33;8.38;;;5.63;;
14235;SDS011;7202;50.718;7.072;2023-05-07T06:34:05;7.95;;;4.88;;
14235;SDS011;7202;50.718;7.072;2023-05-07T06:36:38;6.38;;;5.40;;
14235;SDS011;7202;50.718;7.072;2023-05-07T06:39:23;6.97;;;5.30;;
14235;SDS011;7202;50.718;7.072;2023-05-07T06:41:51;5.70;;;4.70;;
14235;SDS011;7202;50.718;7.072;2023-05-07T06:44:25;5.68;;;4.95;;
14235;SDS011;7202;50.718;7.072;2023-05-07T06:47:11;6.15;;;5.25;;
14235;SDS011;7202;50.718;7.072;2023-05-07T06:49:44;6.07;;;4.88;;
14235;SDS011;7202;50.718;7.072;2023-05-07T06:52:17;7.65;;;4.90;;
14235;SDS011;7202;50.718;7.072;2023-05-07T06:54:49;6.65;;;5.35;;
14235;SDS011;7202;50.718;7.072;2023-05-07T06:57:20;6.97;;;5.45;;
14235;SDS011;7202;50.718;7.072;2023-05-07T06:59:49;7.50;;;5.03;;
14235;SDS011;7202;50.718;7.072;2023-05-07T07:02:19;6.93;;;4.60;;
14235;SDS011;7202;50.718;7.072;2023-05-07T07:04:49;5.78;;;4.55;;
14235;SDS011;7202;50.718;7.072;2023-05-07T07:07:20;5.15;;;4.32;;
14235;SDS011;7202;50.718;7.072;2023-05-07T07:09:50;5.30;;;4.45;;
14235;SDS011;7202;50.718;7.072;2023-05-07T07:12:19;5.45;;;4.63;;
14235;SDS011;7202;50.718;7.072;2023-05-07T07:14:47;4.55;;;4.10;;
14235;SDS011;7202;50.718;7.072;2023-05-07T07:17:16;6.40;;;4.38;;
14235;SDS011;7202;50.718;7.072;2023-05-07T07:19:45;6.72;;;4.45;;
14235;SDS011;7202;50.718;7.072;2023-05-07T07:22:14;5.82;;;4.63;;
14235;SDS011;7202;50.718;7.072;2023-05-07T07:24:44;5.07;;;4.25;;
14235;SDS011;7202;50.718;7.072;2023-05-07T07:27:15;4.60;;;4.00;;
14235;SDS011;7202;50.718;7.072;2023-05-07T07:29:44;4.20;;;3.80;;
14235;SDS011;7202;50.718;7.072;2023-05-07T07:32:13;6.03;;;3.67;;
14235;SDS011;7202;50.718;7.072;2023-05-07T07:34:42;4.35;;;3.67;;
14235;SDS011;7202;50.718;7.072;2023-05-07T07:37:11;4.72;;;3.25;;
14235;SDS011;7202;50.718;7.072;2023-05-07T07:39:40;8.00;;;3.65;;
14235;SDS011;7202;50.718;7.072;2023-05-07T07:42:12;4.07;;;3.20;;
14235;SDS011;7202;50.718;7.072;2023-05-07T07:44:40;4.68;;;3.30;;
14235;SDS011;7202;50.718;7.072;2023-05-07T07:47:12;4.88;;;3.50;;
14235;SDS011;7202;50.718;7.072;2023-05-07T07:49:41;4.78;;;3.40;;
14235;SDS011;7202;50.718;7.072;2023-05-07T07:52:11;3.47;;;2.95;;
14235;SDS011;7202;50.718;7.072;2023-05-07T07:54:41;3.85;;;3.22;;
14235;SDS011;7202;50.718;7.072;2023-05-07T07:57:10;6.95;;;2.83;;
14235;SDS011;7202;50.718;7.072;2023-05-07T07:59:39;3.53;;;2.85;;
14235;SDS011;7202;50.718;7.072;2023-05-07T08:02:11;3.30;;;3.00;;
14235;SDS011;7202;50.718;7.072;2023-05-07T08:04:40;3.50;;;2.78;;
14235;SDS011;7202;50.718;7.072;2023-05-07T08:07:11;4.60;;;2.90;;
14235;SDS011;7202;50.718;7.072;2023-05-07T08:09:49;4.22;;;2.90;;
14235;SDS011;7202;50.718;7.072;2023-05-07T08:12:23;4.15;;;2.92;;
14235;SDS011;7202;50.718;7.072;2023-05-07T08:14:52;3.20;;;2.38;;
14235;SDS011;7202;50.718;7.072;2023-05-07T08:17:20;2.85;;;2.50;;
14235;SDS011;7202;50.718;7.072;2023-05-07T08:19:50;4.95;;;2.50;;
14235;SDS011;7202;50.718;7.072;2023-05-07T08:22:19;4.70;;;2.45;;
14235;SDS011;7202;50.718;7.072;2023-05-07T08:24:49;3.05;;;2.10;;
14235;SDS011;7202;50.718;7.072;2023-05-07T08:27:20;5.72;;;1.77;;
14235;SDS011;7202;50.718;7.072;2023-05-07T08:29:50;2.63;;;2.20;;
14235;SDS011;7202;50.718;7.072;2023-05-07T08:32:21;2.78;;;2.10;;
14235;SDS011;7202;50.718;7.072;2023-05-07T08:34:51;2.40;;;2.10;;
14235;SDS011;7202;50.718;7.072;2023-05-07T08:37:19;2.33;;;2.00;;
14235;SDS011;7202;50.718;7.072;2023-05-07T08:39:48;2.63;;;2.20;;
14235;SDS011;7202;50.718;7.072;2023-05-07T08:42:20;3.63;;;1.95;;
14235;SDS011;7202;50.718;7.072;2023-05-07T08:44:53;2.22;;;2.03;;
14235;SDS011;7202;50.718;7.072;2023-05-07T08:47:27;3.83;;;2.30;;
14235;SDS011;7202;50.718;7.072;2023-05-07T08:50:02;2.47;;;2.05;;
14235;SDS011;7202;50.718;7.072;2023-05-07T08:52:32;2.65;;;2.20;;
14235;SDS011;7202;50.718;7.072;2023-05-07T08:55:02;3.13;;;2.40;;
14235;SDS011;7202;50.718;7.072;2023-05-07T08:57:31;2.70;;;2.03;;
14235;SDS011;7202;50.718;7.072;2023-05-07T09:00:02;2.97;;;1.95;;
14235;SDS011;7202;50.718;7.072;2023-05-07T09:02:31;3.63;;;2.25;;
14235;SDS011;7202;50.718;7.072;2023-05-07T09:05:00;2.47;;;2.28;;
14235;SDS011;7202;50.718;7.072;2023-05-07T09:07:29;3.05;;;2.10;;
14235;SDS011;7202;50.718;7.072;2023-05-07T09:10:00;3.53;;;2.13;;
14235;SDS011;7202;50.718;7.072;2023-05-07T09:12:31;3.90;;;1.90;;
14235;SDS011;7202;50.718;7.072;2023-05-07T09:15:06;2.85;;;2.38;;
14235;SDS011;7202;50.718;7.072;2023-05-07T09:17:36;3.40;;;2.00;;
14235;SDS011;7202;50.718;7.072;2023-05-07T09:20:05;3.05;;;2.28;;
14235;SDS011;7202;50.718;7.072;2023-05-07T09:22:38;5.75;;;2.20;;
14235;SDS011;7202;50.718;7.072;2023-05-07T09:25:11;3.63;;;2.45;;
14235;SDS011;7202;50.718;7.072;2023-05-07T09:27:41;4.05;;;2.70;;
14235;SDS011;7202;50.718;7.072;2023-05-07T09:30:12;3.60;;;2.00;;
14235;SDS011;7202;50.718;7.072;2023-05-07T09:32:41;1.98;;;1.67;;
14235;SDS011;7202;50.718;7.072;2023-05-07T09:35:15;2.50;;;1.85;;
14235;SDS011;7202;50.718;7.072;2023-05-07T09:37:49;1.98;;;1.77;;
14235;SDS011;7202;50.718;7.072;2023-05-07T09:40:22;2.95;;;2.13;;
14235;SDS011;7202;50.718;7.072;2023-05-07T09:42:53;4.82;;;1.90;;
14235;SDS011;7202;50.718;7.072;2023-05-07T09:45:25;2.85;;;1.92;;
14235;SDS011;7202;50.718;7.072;2023-05-07T09:47:56;2.38;;;1.90;;
14235;SDS011;7202;50.718;7.072;2023-05-07T09:50:28;2.80;;;2.10;;
14235;SDS011;7202;50.718;7.072;2023-05-07T09:52:58;2.83;;;1.85;;
14235;SDS011;7202;50.718;7.072;2023-05-07T09:55:27;2.50;;;1.80;;
14235;SDS011;7202;50.718;7.072;2023-05-07T09:57:56;2.75;;;1.90;;
14235;SDS011;7202;50.718;7.072;2023-05-07T10:00:29;7.28;;;2.58;;
14235;SDS011;7202;50.718;7.072;2023-05-07T10:03:07;1.50;;;1.40;;
14235;SDS011;7202;50.718;7.072;2023-05-07T10:05:49;2.65;;;1.67;;
14235;SDS011;7202;50.718;7.072;2023-05-07T10:08:20;4.13;;;1.70;;
14235;SDS011;7202;50.718;7.072;2023-05-07T10:10:53;2.95;;;1.95;;
14235;SDS011;7202;50.718;7.072;2023-05-07T10:13:24;2.40;;;1.60;;
14235;SDS011;7202;50.718;7.072;2023-05-07T10:15:57;3.90;;;1.90;;
14235;SDS011;7202;50.718;7.072;2023-05-07T10:18:31;2.22;;;1.60;;
14235;SDS011;7202;50.718;7.072;2023-05-07T10:21:07;2.42;;;1.70;;
14235;SDS011;7202;50.718;7.072;2023-05-07T10:23:39;3.63;;;1.58;;
14235;SDS011;7202;50.718;7.072;2023-05-07T10:26:09;2.47;;;1.75;;
14235;SDS011;7202;50.718;7.072;2023-05-07T10:28:38;4.80;;;1.70;;
14235;SDS011;7202;50.718;7.072;2023-05-07T10:31:23;1.83;;;1.52;;
14235;SDS011;7202;50.718;7.072;2023-05-07T10:34:07;1.98;;;1.60;;
14235;SDS011;7202;50.718;7.072;2023-05-07T10:36:37;2.20;;;1.33;;
14235;SDS011;7202;50.718;7.072;2023-05-07T10:39:06;2.72;;;1.70;;
14235;SDS011;7202;50.718;7.072;2023-05-07T10:41:38;4.45;;;2.05;;
14235;SDS011;7202;50.718;7.072;2023-05-07T10:44:09;2.85;;;1.52;;
14235;SDS011;7202;50.718;7.072;2023-05-07T10:46:39;2.55;;;1.60;;
14235;SDS011;7202;50.718;7.072;2023-05-07T10:49:19;3.17;;;2.00;;
14235;SDS011;7202;50.718;7.072;2023-05-07T10:52:13;2.35;;;1.60;;
14235;SDS011;7202;50.718;7.072;2023-05-07T11:01:12;1.83;;;1.50;;
14235;SDS011;7202;50.718;7.072;2023-05-07T11:09:55;2.75;;;1.60;;
14235;SDS011;7202;50.718;7.072;2023-05-07T11:12:52;1.50;;;1.40;;
14235;SDS011;7202;50.718;7.072;2023-05-07T11:15:34;3.05;;;1.73;;
14235;SDS011;7202;50.718;7.072;2023-05-07T11:18:12;2.40;;;1.65;;
14235;SDS011;7202;50.718;7.072;2023-05-07T11:20:48;1.92;;;1.50;;
14235;SDS011;7202;50.718;7.072;2023-05-07T11:26:45;2.65;;;1.83;;
14235;SDS011;7202;50.718;7.072;2023-05-07T11:29:16;1.77;;;1.67;;
14235;SDS011;7202;50.718;7.072;2023-05-07T11:31:52;3.72;;;1.90;;
14235;SDS011;7202;50.718;7.072;2023-05-07T11:34:25;3.58;;;2.13;;
14235;SDS011;7202;50.718;7.072;2023-05-07T11:36:56;2.92;;;1.70;;
14235;SDS011;7202;50.718;7.072;2023-05-07T11:39:49;2.13;;;1.77;;
14235;SDS011;7202;50.718;7.072;2023-05-07T11:42:29;1.70;;;1.60;;
14235;SDS011;7202;50.718;7.072;2023-05-07T11:44:59;1.67;;;1.58;;
14235;SDS011;7202;50.718;7.072;2023-05-07T11:47:29;2.97;;;1.77;;
14235;SDS011;7202;50.718;7.072;2023-05-07T11:50:02;4.72;;;1.85;;
14235;SDS011;7202;50.718;7.072;2023-05-07T11:52:31;2.22;;;1.80;;
14235;SDS011;7202;50.718;7.072;2023-05-07T11:55:01;2.45;;;1.88;;
14235;SDS011;7202;50.718;7.072;2023-05-07T11:57:32;1.98;;;1.48;;
14235;SDS011;7202;50.718;7.072;2023-05-07T12:00:02;2.08;;;1.63;;
14235;SDS011;7202;50.718;7.072;2023-05-07T12:02:42;3.60;;;1.90;;
14235;SDS011;7202;50.718;7.072;2023-05-07T12:05:11;1.67;;;1.55;;
14235;SDS011;7202;50.718;7.072;2023-05-07T12:07:40;2.28;;;1.50;;
14235;SDS011;7202;50.718;7.072;2023-05-07T12:10:10;2.97;;;1.42;;
14235;SDS011;7202;50.718;7.072;2023-05-07T12:12:41;2.20;;;1.70;;
14235;SDS011;7202;50.718;7.072;2023-05-07T12:15:15;1.85;;;1.70;;
14235;SDS011;7202;50.718;7.072;2023-05-07T12:17:43;2.13;;;1.67;;
14235;SDS011;7202;50.718;7.072;2023-05-07T12:20:12;4.43;;;1.73;;
14235;SDS011;7202;50.718;7.072;2023-05-07T12:22:41;1.80;;;1.70;;
14235;SDS011;7202;50.718;7.072;2023-05-07T12:25:10;4.40;;;1.63;;
14235;SDS011;7202;50.718;7.072;2023-05-07T12:27:43;2.38;;;1.52;;
14235;SDS011;7202;50.718;7.072;2023-05-07T12:30:12;1.85;;;1.42;;
14235;SDS011;7202;50.718;7.072;2023-05-07T12:32:41;2.17;;;1.65;;
14235;SDS011;7202;50.718;7.072;2023-05-07T12:35:12;3.53;;;1.90;;
14235;SDS011;7202;50.718;7.072;2023-05-07T12:37:41;2.97;;;1.42;;
14235;SDS011;7202;50.718;7.072;2023-05-07T12:40:10;2.28;;;1.40;;
14235;SDS011;7202;50.718;7.072;2023-05-07T12:42:40;1.63;;;1.38;;
14235;SDS011;7202;50.718;7.072;2023-05-07T12:45:11;3.15;;;1.60;;
14235;SDS011;7202;50.718;7.072;2023-05-07T12:47:43;2.22;;;1.60;;
14235;SDS011;7202;50.718;7.072;2023-05-07T12:50:12;2.47;;;1.73;;
14235;SDS011;7202;50.718;7.072;2023-05-07T12:52:42;1.88;;;1.40;;
14235;SDS011;7202;50.718;7.072;2023-05-07T12:55:12;6.43;;;2.67;;
14235;SDS011;7202;50.718;7.072;2023-05-07T12:57:43;1.55;;;1.45;;
14235;SDS011;7202;50.718;7.072;2023-05-07T13:00:17;1.55;;;1.40;;
14235;SDS011;7202;50.718;7.072;2023-05-07T13:02:59;3.08;;;1.65;;
14235;SDS011;7202;50.718;7.072;2023-05-07T13:05:28;4.05;;;1.50;;
14235;SDS011;7202;50.718;7.072;2023-05-07T13:07:57;1.50;;;1.40;;
14235;SDS011;7202;50.718;7.072;2023-05-07T13:10:26;2.17;;;1.75;;
14235;SDS011;7202;50.718;7.072;2023-05-07T13:12:58;2.70;;;1.70;;
14235;SDS011;7202;50.718;7.072;2023-05-07T13:15:28;2.33;;;1.85;;
14235;SDS011;7202;50.718;7.072;2023-05-07T13:17:56;4.35;;;1.88;;
14235;SDS011;7202;50.718;7.072;2023-05-07T13:20:25;2.13;;;1.70;;
14235;SDS011;7202;50.718;7.072;2023-05-07T13:22:54;2.40;;;1.67;;
14235;SDS011;7202;50.718;7.072;2023-05-07T13:25:23;3.42;;;1.70;;
14235;SDS011;7202;50.718;7.072;2023-05-07T13:27:52;4.03;;;1.83;;
14235;SDS011;7202;50.718;7.072;2023-05-07T13:30:34;1.85;;;1.75;;
14235;SDS011;7202;50.718;7.072;2023-05-07T13:33:02;2.90;;;1.65;;
14235;SDS011;7202;50.718;7.072;2023-05-07T13:35:31;3.60;;;1.90;;
14235;SDS011;7202;50.718;7.072;2023-05-07T13:38:00;4.97;;;1.90;;
14235;SDS011;7202;50.718;7.072;2023-05-07T13:40:29;2.97;;;1.85;;
14235;SDS011;7202;50.718;7.072;2023-05-07T13:42:58;2.20;;;1.80;;
14235;SDS011;7202;50.718;7.072;2023-05-07T13:45:28;2.15;;;1.80;;
14235;SDS011;7202;50.718;7.072;2023-05-07T13:47:59;2.60;;;2.05;;
14235;SDS011;7202;50.718;7.072;2023-05-07T13:50:28;3.15;;;1.90;;
14235;SDS011;7202;50.718;7.072;2023-05-07T13:52:57;2.38;;;1.80;;
14235;SDS011;7202;50.718;7.072;2023-05-07T13:55:25;4.90;;;2.15;;
14235;SDS011;7202;50.718;7.072;2023-05-07T13:57:56;7.32;;;2.13;;
14235;SDS011;7202;50.718;7.072;2023-05-07T14:00:26;5.82;;;2.08;;
14235;SDS011;7202;50.718;7.072;2023-05-07T14:02:56;3.60;;;2.20;;
14235;SDS011;7202;50.718;7.072;2023-05-07T14:05:27;2.53;;;1.75;;
14235;SDS011;7202;50.718;7.072;2023-05-07T14:07:56;3.10;;;2.10;;
14235;SDS011;7202;50.718;7.072;2023-05-07T14:10:25;2.97;;;2.30;;
14235;SDS011;7202;50.718;7.072;2023-05-07T14:12:54;2.78;;;1.88;;
14235;SDS011;7202;50.718;7.072;2023-05-07T14:15:23;2.85;;;1.83;;
14235;SDS011;7202;50.718;7.072;2023-05-07T14:17:52;3.60;;;2.40;;
14235;SDS011;7202;50.718;7.072;2023-05-07T14:20:20;2.30;;;2.00;;
14235;SDS011;7202;50.718;7.072;2023-05-07T14:22:50;2.05;;;1.80;;
14235;SDS011;7202;50.718;7.072;2023-05-07T14:25:19;2.08;;;1.73;;
14235;SDS011;7202;50.718;7.072;2023-05-07T14:27:51;2.17;;;1.40;;
14235;SDS011;7202;50.718;7.072;2023-05-07T14:30:19;2.45;;;1.48;;
14235;SDS011;7202;50.718;7.072;2023-05-07T14:32:49;1.95;;;1.50;;
14235;SDS011;7202;50.718;7.072;2023-05-07T14:35:18;2.00;;;1.40;;
14235;SDS011;7202;50.718;7.072;2023-05-07T14:37:47;3.00;;;1.40;;
14235;SDS011;7202;50.718;7.072;2023-05-07T14:40:17;1.30;;;1.20;;
14235;SDS011;7202;50.718;7.072;2023-05-07T14:42:45;1.30;;;1.20;;
14235;SDS011;7202;50.718;7.072;2023-05-07T14:45:14;2.45;;;1.10;;
14235;SDS011;7202;50.718;7.072;2023-05-07T14:47:43;1.20;;;1.10;;
14235;SDS011;7202;50.718;7.072;2023-05-07T14:50:11;1.30;;;1.20;;
14235;SDS011;7202;50.718;7.072;2023-05-07T14:52:40;1.70;;;1.38;;
14235;SDS011;7202;50.718;7.072;2023-05-07T14:55:09;2.83;;;1.25;;
14235;SDS011;7202;50.718;7.072;2023-05-07T14:57:39;1.40;;;1.30;;
14235;SDS011;7202;50.718;7.072;2023-05-07T15:00:08;1.42;;;1.30;;
14235;SDS011;7202;50.718;7.072;2023-05-07T15:02:38;4.53;;;2.40;;
14235;SDS011;7202;50.718;7.072;2023-05-07T15:05:07;3.22;;;2.13;;
14235;SDS011;7202;50.718;7.072;2023-05-07T15:07:36;2.50;;;2.05;;
14235;SDS011;7202;50.718;7.072;2023-05-07T15:10:04;3.05;;;2.28;;
14235;SDS011;7202;50.718;7.072;2023-05-07T15:12:34;3.25;;;2.30;;
14235;SDS011;7202;50.718;7.072;2023-05-07T15:15:05;3.90;;;1.95;;
14235;SDS011;7202;50.718;7.072;2023-05-07T15:17:34;2.38;;;1.80;;
14235;SDS011;7202;50.718;7.072;2023-05-07T15:20:03;3.80;;;2.17;;
14235;SDS011;7202;50.718;7.072;2023-05-07T15:22:33;2.63;;;2.30;;
14235;SDS011;7202;50.718;7.072;2023-05-07T15:25:04;4.60;;;2.17;;
14235;SDS011;7202;50.718;7.072;2023-05-07T15:27:33;3.28;;;2.30;;
14235;SDS011;7202;50.718;7.072;2023-05-07T15:30:01;2.55;;;2.35;;
14235;SDS011;7202;50.718;7.072;2023-05-07T15:32:33;3.45;;;2.33;;
14235;SDS011;7202;50.718;7.072;2023-05-07T15:35:02;4.80;;;2.97;;
14235;SDS011;7202;50.718;7.072;2023-05-07T15:37:31;4.40;;;2.33;;